SBPB/PHB METAR and TAF weather

Enter ICAO airport designator
Station Type Date Time Source
SBPB METAR 2022/01/29 13:00 UTC NOAA

SBPB 291300Z 12007KT 9999 FEW020 BKN100 30/23 Q1012


Station Type Date Time Source
SBPB Decoded METAR 2022/01/29 13:00 UTC NOAA

Parnaiba Aeroporto , Brazil (SBPB) 02-55S 041-45W
Jan 29, 2022 - 08:00 AM EST / 2022.01.29 1300 UTC
Wind: from the ESE (120 degrees) at 8 MPH (7 KT):0
Visibility: greater than 7 mile(s):0
Sky conditions: mostly cloudy
Temperature: 86 F (30 C)
Heat index: 93.4 F (34.1 C):1
Dew Point: 73 F (23 C)
Relative Humidity: 66%
Pressure (altimeter): 29.88 in. Hg (1012 hPa)
ob: SBPB 291300Z 12007KT 9999 FEW020 BKN100 30/23 Q1012
cycle: 13

Station Type Date Time Source
SBPB TAF 2022/01/29 12:12 UTC NOAA

TAF SBPB 290910Z 2912/2924 04010KT 9999 BKN017 TX29/2918Z TN26/2924Z
BECMG 2915/2917 06015KT
BECMG 2921/2923 08010KT SCT015
RMK PFV

Example: see airport list